sensor_id;sensor_type;location;lat;lon;timestamp;P1;durP1;ratioP1;P2;durP2;ratioP2
10661;SDS011;5379;51.034;7.006;2023-11-21T00:01:07;2.40;;;2.30;;
10661;SDS011;5379;51.034;7.006;2023-11-21T00:03:34;2.93;;;2.73;;
10661;SDS011;5379;51.034;7.006;2023-11-21T00:06:01;3.27;;;3.07;;
10661;SDS011;5379;51.034;7.006;2023-11-21T00:08:29;4.23;;;3.63;;
10661;SDS011;5379;51.034;7.006;2023-11-21T00:10:55;4.03;;;3.73;;
10661;SDS011;5379;51.034;7.006;2023-11-21T00:13:23;4.07;;;3.23;;
10661;SDS011;5379;51.034;7.006;2023-11-21T00:15:51;4.93;;;3.47;;
10661;SDS011;5379;51.034;7.006;2023-11-21T00:18:18;4.20;;;3.43;;
10661;SDS011;5379;51.034;7.006;2023-11-21T00:20:45;3.40;;;3.10;;
10661;SDS011;5379;51.034;7.006;2023-11-21T00:23:12;3.60;;;3.30;;
10661;SDS011;5379;51.034;7.006;2023-11-21T00:25:39;4.10;;;3.60;;
10661;SDS011;5379;51.034;7.006;2023-11-21T00:28:06;5.00;;;4.47;;
10661;SDS011;5379;51.034;7.006;2023-11-21T00:30:33;3.53;;;3.20;;
10661;SDS011;5379;51.034;7.006;2023-11-21T00:33:01;3.57;;;3.17;;
10661;SDS011;5379;51.034;7.006;2023-11-21T00:35:29;4.90;;;3.80;;
10661;SDS011;5379;51.034;7.006;2023-11-21T00:37:56;3.40;;;3.20;;
10661;SDS011;5379;51.034;7.006;2023-11-21T00:40:23;3.70;;;3.27;;
10661;SDS011;5379;51.034;7.006;2023-11-21T00:42:50;6.10;;;3.43;;
10661;SDS011;5379;51.034;7.006;2023-11-21T00:45:17;2.80;;;2.70;;
10661;SDS011;5379;51.034;7.006;2023-11-21T00:47:43;3.20;;;3.00;;
10661;SDS011;5379;51.034;7.006;2023-11-21T00:50:12;4.03;;;3.73;;
10661;SDS011;5379;51.034;7.006;2023-11-21T00:52:39;3.43;;;3.23;;
10661;SDS011;5379;51.034;7.006;2023-11-21T00:55:06;4.70;;;3.20;;
10661;SDS011;5379;51.034;7.006;2023-11-21T00:57:33;3.23;;;3.03;;
10661;SDS011;5379;51.034;7.006;2023-11-21T01:00:00;2.97;;;2.77;;
10661;SDS011;5379;51.034;7.006;2023-11-21T05:32:39;5.10;;;4.70;;
10661;SDS011;5379;51.034;7.006;2023-11-21T05:35:08;7.10;;;6.47;;
10661;SDS011;5379;51.034;7.006;2023-11-21T05:37:39;11.87;;;6.77;;
10661;SDS011;5379;51.034;7.006;2023-11-21T05:40:06;7.47;;;6.73;;
10661;SDS011;5379;51.034;7.006;2023-11-21T05:42:35;7.17;;;6.67;;
10661;SDS011;5379;51.034;7.006;2023-11-21T05:47:30;7.23;;;6.50;;
10661;SDS011;5379;51.034;7.006;2023-11-21T05:49:59;8.57;;;6.87;;
10661;SDS011;5379;51.034;7.006;2023-11-21T05:52:26;8.90;;;7.87;;
10661;SDS011;5379;51.034;7.006;2023-11-21T05:54:53;7.57;;;6.80;;
10661;SDS011;5379;51.034;7.006;2023-11-21T05:57:19;8.27;;;7.33;;
10661;SDS011;5379;51.034;7.006;2023-11-21T05:59:46;8.37;;;7.67;;
10661;SDS011;5379;51.034;7.006;2023-11-21T06:02:13;7.30;;;6.67;;
10661;SDS011;5379;51.034;7.006;2023-11-21T06:04:40;11.10;;;8.13;;
10661;SDS011;5379;51.034;7.006;2023-11-21T06:07:08;7.30;;;6.60;;
10661;SDS011;5379;51.034;7.006;2023-11-21T06:09:35;8.27;;;6.97;;
10661;SDS011;5379;51.034;7.006;2023-11-21T06:12:03;7.47;;;6.77;;
10661;SDS011;5379;51.034;7.006;2023-11-21T06:14:30;7.27;;;6.67;;
10661;SDS011;5379;51.034;7.006;2023-11-21T06:16:58;7.80;;;7.10;;
10661;SDS011;5379;51.034;7.006;2023-11-21T06:19:25;6.73;;;6.23;;
10661;SDS011;5379;51.034;7.006;2023-11-21T06:21:52;8.70;;;7.97;;
10661;SDS011;5379;51.034;7.006;2023-11-21T06:24:20;9.20;;;8.23;;
10661;SDS011;5379;51.034;7.006;2023-11-21T06:26:47;8.30;;;7.57;;
10661;SDS011;5379;51.034;7.006;2023-11-21T06:29:14;6.57;;;6.00;;
10661;SDS011;5379;51.034;7.006;2023-11-21T06:31:41;7.47;;;6.73;;
10661;SDS011;5379;51.034;7.006;2023-11-21T06:34:08;6.97;;;6.47;;
10661;SDS011;5379;51.034;7.006;2023-11-21T06:36:35;10.90;;;8.30;;
10661;SDS011;5379;51.034;7.006;2023-11-21T06:39:02;7.07;;;6.50;;
10661;SDS011;5379;51.034;7.006;2023-11-21T06:41:33;10.67;;;8.17;;
10661;SDS011;5379;51.034;7.006;2023-11-21T06:44:00;8.10;;;7.43;;
10661;SDS011;5379;51.034;7.006;2023-11-21T06:46:27;8.37;;;7.67;;
10661;SDS011;5379;51.034;7.006;2023-11-21T06:48:54;12.23;;;7.07;;
10661;SDS011;5379;51.034;7.006;2023-11-21T06:51:21;10.80;;;8.30;;
10661;SDS011;5379;51.034;7.006;2023-11-21T06:53:48;8.70;;;7.80;;
10661;SDS011;5379;51.034;7.006;2023-11-21T06:56:15;8.10;;;7.20;;
10661;SDS011;5379;51.034;7.006;2023-11-21T06:58:44;8.43;;;7.63;;
10661;SDS011;5379;51.034;7.006;2023-11-21T07:01:11;10.83;;;9.27;;
10661;SDS011;5379;51.034;7.006;2023-11-21T07:03:39;8.93;;;8.13;;
10661;SDS011;5379;51.034;7.006;2023-11-21T07:06:06;8.30;;;7.60;;
10661;SDS011;5379;51.034;7.006;2023-11-21T07:08:34;8.83;;;7.97;;
10661;SDS011;5379;51.034;7.006;2023-11-21T07:11:00;10.73;;;9.53;;
10661;SDS011;5379;51.034;7.006;2023-11-21T07:13:28;8.03;;;7.33;;
10661;SDS011;5379;51.034;7.006;2023-11-21T07:15:56;10.17;;;8.40;;
10661;SDS011;5379;51.034;7.006;2023-11-21T07:18:23;13.17;;;9.83;;
10661;SDS011;5379;51.034;7.006;2023-11-21T07:20:50;10.10;;;9.20;;
10661;SDS011;5379;51.034;7.006;2023-11-21T07:23:18;11.30;;;9.50;;
10661;SDS011;5379;51.034;7.006;2023-11-21T07:25:44;10.17;;;9.37;;
10661;SDS011;5379;51.034;7.006;2023-11-21T07:28:12;10.70;;;9.80;;
10661;SDS011;5379;51.034;7.006;2023-11-21T07:30:39;13.03;;;11.33;;
10661;SDS011;5379;51.034;7.006;2023-11-21T07:33:07;10.53;;;9.63;;
10661;SDS011;5379;51.034;7.006;2023-11-21T07:35:34;9.77;;;8.93;;
10661;SDS011;5379;51.034;7.006;2023-11-21T07:38:00;11.60;;;10.50;;
10661;SDS011;5379;51.034;7.006;2023-11-21T07:40:28;13.43;;;11.37;;
10661;SDS011;5379;51.034;7.006;2023-11-21T07:42:55;12.27;;;10.57;;
10661;SDS011;5379;51.034;7.006;2023-11-21T07:45:22;14.33;;;11.47;;
10661;SDS011;5379;51.034;7.006;2023-11-21T07:50:28;11.57;;;9.63;;
10661;SDS011;5379;51.034;7.006;2023-11-21T07:52:55;12.13;;;11.07;;
10661;SDS011;5379;51.034;7.006;2023-11-21T07:55:22;12.03;;;10.83;;
10661;SDS011;5379;51.034;7.006;2023-11-21T07:57:50;11.73;;;10.53;;
10661;SDS011;5379;51.034;7.006;2023-11-21T08:00:17;10.43;;;9.57;;
10661;SDS011;5379;51.034;7.006;2023-11-21T08:02:46;11.97;;;10.77;;
10661;SDS011;5379;51.034;7.006;2023-11-21T08:05:13;12.33;;;10.97;;
10661;SDS011;5379;51.034;7.006;2023-11-21T08:07:41;14.10;;;12.20;;
10661;SDS011;5379;51.034;7.006;2023-11-21T08:10:08;13.00;;;11.70;;
10661;SDS011;5379;51.034;7.006;2023-11-21T08:12:36;22.17;;;11.87;;
10661;SDS011;5379;51.034;7.006;2023-11-21T08:15:04;13.17;;;11.70;;
10661;SDS011;5379;51.034;7.006;2023-11-21T08:17:31;13.87;;;11.63;;
10661;SDS011;5379;51.034;7.006;2023-11-21T08:19:58;17.77;;;13.60;;
10661;SDS011;5379;51.034;7.006;2023-11-21T08:22:25;14.83;;;12.60;;
10661;SDS011;5379;51.034;7.006;2023-11-21T08:24:53;14.37;;;12.97;;
10661;SDS011;5379;51.034;7.006;2023-11-21T08:27:21;12.60;;;11.40;;
10661;SDS011;5379;51.034;7.006;2023-11-21T08:29:48;14.33;;;11.73;;
10661;SDS011;5379;51.034;7.006;2023-11-21T08:32:15;14.03;;;12.63;;
10661;SDS011;5379;51.034;7.006;2023-11-21T08:34:42;13.40;;;12.10;;
10661;SDS011;5379;51.034;7.006;2023-11-21T08:37:10;15.40;;;13.10;;
10661;SDS011;5379;51.034;7.006;2023-11-21T08:39:37;12.40;;;10.83;;
10661;SDS011;5379;51.034;7.006;2023-11-21T08:42:05;15.13;;;11.30;;
10661;SDS011;5379;51.034;7.006;2023-11-21T08:44:33;14.13;;;11.67;;
10661;SDS011;5379;51.034;7.006;2023-11-21T08:47:00;12.87;;;11.67;;
10661;SDS011;5379;51.034;7.006;2023-11-21T08:49:26;14.33;;;12.30;;
10661;SDS011;5379;51.034;7.006;2023-11-21T08:51:54;12.43;;;11.33;;
10661;SDS011;5379;51.034;7.006;2023-11-21T08:54:23;12.97;;;11.30;;
10661;SDS011;5379;51.034;7.006;2023-11-21T08:56:50;18.60;;;12.10;;
10661;SDS011;5379;51.034;7.006;2023-11-21T08:59:19;18.90;;;13.37;;
10661;SDS011;5379;51.034;7.006;2023-11-21T09:01:46;12.57;;;11.37;;
10661;SDS011;5379;51.034;7.006;2023-11-21T09:04:13;14.73;;;12.13;;
10661;SDS011;5379;51.034;7.006;2023-11-21T09:06:39;19.87;;;12.57;;
10661;SDS011;5379;51.034;7.006;2023-11-21T09:09:06;14.77;;;11.40;;
10661;SDS011;5379;51.034;7.006;2023-11-21T09:11:35;17.43;;;13.50;;
10661;SDS011;5379;51.034;7.006;2023-11-21T09:14:02;18.40;;;12.90;;
10661;SDS011;5379;51.034;7.006;2023-11-21T09:16:30;13.63;;;12.17;;
10661;SDS011;5379;51.034;7.006;2023-11-21T09:18:58;21.30;;;11.97;;
10661;SDS011;5379;51.034;7.006;2023-11-21T09:21:25;14.00;;;12.33;;
10661;SDS011;5379;51.034;7.006;2023-11-21T09:23:52;13.87;;;11.87;;
10661;SDS011;5379;51.034;7.006;2023-11-21T09:26:19;13.57;;;12.27;;
10661;SDS011;5379;51.034;7.006;2023-11-21T09:28:46;16.30;;;12.70;;
10661;SDS011;5379;51.034;7.006;2023-11-21T09:31:13;17.47;;;12.93;;
10661;SDS011;5379;51.034;7.006;2023-11-21T09:33:42;13.30;;;11.73;;
10661;SDS011;5379;51.034;7.006;2023-11-21T09:36:11;22.07;;;14.63;;
10661;SDS011;5379;51.034;7.006;2023-11-21T09:38:39;16.33;;;12.30;;
10661;SDS011;5379;51.034;7.006;2023-11-21T09:41:07;13.00;;;11.47;;
10661;SDS011;5379;51.034;7.006;2023-11-21T09:43:42;18.00;;;13.73;;
10661;SDS011;5379;51.034;7.006;2023-11-21T09:46:11;14.63;;;12.10;;
10661;SDS011;5379;51.034;7.006;2023-11-21T09:48:46;13.27;;;11.80;;
10661;SDS011;5379;51.034;7.006;2023-11-21T09:51:17;30.20;;;13.17;;
10661;SDS011;5379;51.034;7.006;2023-11-21T09:53:47;15.20;;;12.87;;
10661;SDS011;5379;51.034;7.006;2023-11-21T09:56:17;15.87;;;13.07;;
10661;SDS011;5379;51.034;7.006;2023-11-21T09:58:50;14.23;;;12.27;;
10661;SDS011;5379;51.034;7.006;2023-11-21T10:01:18;15.07;;;12.50;;
10661;SDS011;5379;51.034;7.006;2023-11-21T10:03:48;15.60;;;13.57;;
10661;SDS011;5379;51.034;7.006;2023-11-21T10:06:15;13.70;;;12.33;;
10661;SDS011;5379;51.034;7.006;2023-11-21T10:08:43;13.77;;;12.23;;
10661;SDS011;5379;51.034;7.006;2023-11-21T10:11:11;14.40;;;12.90;;
10661;SDS011;5379;51.034;7.006;2023-11-21T10:13:40;16.10;;;12.43;;
10661;SDS011;5379;51.034;7.006;2023-11-21T10:16:08;18.77;;;13.50;;
10661;SDS011;5379;51.034;7.006;2023-11-21T10:18:38;14.37;;;12.83;;
10661;SDS011;5379;51.034;7.006;2023-11-21T10:21:07;15.30;;;13.80;;
10661;SDS011;5379;51.034;7.006;2023-11-21T10:23:35;12.43;;;11.17;;
10661;SDS011;5379;51.034;7.006;2023-11-21T10:26:02;15.00;;;13.40;;
10661;SDS011;5379;51.034;7.006;2023-11-21T10:28:30;14.03;;;12.57;;
10661;SDS011;5379;51.034;7.006;2023-11-21T10:31:02;16.13;;;14.27;;
10661;SDS011;5379;51.034;7.006;2023-11-21T10:33:29;13.97;;;12.67;;
10661;SDS011;5379;51.034;7.006;2023-11-21T10:35:56;13.57;;;12.27;;
10661;SDS011;5379;51.034;7.006;2023-11-21T10:38:24;15.07;;;12.70;;
10661;SDS011;5379;51.034;7.006;2023-11-21T10:40:53;12.90;;;11.70;;
10661;SDS011;5379;51.034;7.006;2023-11-21T10:43:20;12.57;;;11.37;;
10661;SDS011;5379;51.034;7.006;2023-11-21T10:45:51;15.33;;;13.83;;
10661;SDS011;5379;51.034;7.006;2023-11-21T10:48:18;13.93;;;12.43;;
10661;SDS011;5379;51.034;7.006;2023-11-21T10:50:47;21.43;;;12.93;;
10661;SDS011;5379;51.034;7.006;2023-11-21T10:53:14;15.40;;;12.93;;
10661;SDS011;5379;51.034;7.006;2023-11-21T10:55:43;15.90;;;14.07;;
10661;SDS011;5379;51.034;7.006;2023-11-21T10:58:10;16.63;;;13.03;;
10661;SDS011;5379;51.034;7.006;2023-11-21T11:00:39;16.43;;;14.13;;
10661;SDS011;5379;51.034;7.006;2023-11-21T11:03:06;13.90;;;12.60;;
10661;SDS011;5379;51.034;7.006;2023-11-21T11:05:38;25.47;;;12.30;;
10661;SDS011;5379;51.034;7.006;2023-11-21T11:08:08;16.97;;;13.13;;
10661;SDS011;5379;51.034;7.006;2023-11-21T11:10:37;19.87;;;15.40;;
10661;SDS011;5379;51.034;7.006;2023-11-21T11:13:07;20.90;;;15.20;;
10661;SDS011;5379;51.034;7.006;2023-11-21T11:15:35;15.53;;;13.40;;
10661;SDS011;5379;51.034;7.006;2023-11-21T11:18:02;22.60;;;13.70;;
10661;SDS011;5379;51.034;7.006;2023-11-21T11:20:32;20.37;;;17.17;;
10661;SDS011;5379;51.034;7.006;2023-11-21T11:23:11;13.97;;;12.63;;
10661;SDS011;5379;51.034;7.006;2023-11-21T11:25:55;13.43;;;12.10;;
10661;SDS011;5379;51.034;7.006;2023-11-21T11:28:38;15.43;;;11.77;;
10661;SDS011;5379;51.034;7.006;2023-11-21T11:31:12;16.77;;;13.20;;
10661;SDS011;5379;51.034;7.006;2023-11-21T11:33:45;14.70;;;13.00;;
10661;SDS011;5379;51.034;7.006;2023-11-21T11:36:21;13.43;;;12.07;;
10661;SDS011;5379;51.034;7.006;2023-11-21T11:38:52;16.70;;;12.13;;
10661;SDS011;5379;51.034;7.006;2023-11-21T11:41:24;15.30;;;12.63;;
10661;SDS011;5379;51.034;7.006;2023-11-21T11:43:54;19.20;;;12.97;;
10661;SDS011;5379;51.034;7.006;2023-11-21T11:46:21;18.67;;;14.73;;
10661;SDS011;5379;51.034;7.006;2023-11-21T11:49:07;14.37;;;11.43;;
10661;SDS011;5379;51.034;7.006;2023-11-21T11:51:34;18.33;;;12.10;;
10661;SDS011;5379;51.034;7.006;2023-11-21T11:54:01;16.47;;;11.80;;
10661;SDS011;5379;51.034;7.006;2023-11-21T11:56:29;14.40;;;12.60;;
10661;SDS011;5379;51.034;7.006;2023-11-21T11:59:01;14.03;;;12.53;;
10661;SDS011;5379;51.034;7.006;2023-11-21T12:01:30;13.67;;;11.07;;
10661;SDS011;5379;51.034;7.006;2023-11-21T12:06:56;12.77;;;11.50;;
10661;SDS011;5379;51.034;7.006;2023-11-21T12:09:25;19.17;;;12.60;;
10661;SDS011;5379;51.034;7.006;2023-11-21T12:11:52;20.00;;;12.10;;
10661;SDS011;5379;51.034;7.006;2023-11-21T12:14:23;12.87;;;11.53;;
10661;SDS011;5379;51.034;7.006;2023-11-21T12:16:50;13.03;;;11.63;;
10661;SDS011;5379;51.034;7.006;2023-11-21T12:19:18;12.30;;;11.07;;
10661;SDS011;5379;51.034;7.006;2023-11-21T12:21:45;29.37;;;12.73;;
10661;SDS011;5379;51.034;7.006;2023-11-21T12:24:13;12.30;;;11.03;;
10661;SDS011;5379;51.034;7.006;2023-11-21T12:26:41;12.80;;;11.27;;
10661;SDS011;5379;51.034;7.006;2023-11-21T12:29:09;13.90;;;11.83;;
10661;SDS011;5379;51.034;7.006;2023-11-21T12:31:37;18.30;;;11.20;;
10661;SDS011;5379;51.034;7.006;2023-11-21T12:34:05;26.00;;;12.57;;
10661;SDS011;5379;51.034;7.006;2023-11-21T12:36:32;12.67;;;10.67;;
10661;SDS011;5379;51.034;7.006;2023-11-21T12:39:00;18.93;;;11.87;;
10661;SDS011;5379;51.034;7.006;2023-11-21T12:41:28;17.37;;;11.63;;
10661;SDS011;5379;51.034;7.006;2023-11-21T12:43:55;19.83;;;13.93;;
10661;SDS011;5379;51.034;7.006;2023-11-21T12:46:22;17.67;;;13.03;;
10661;SDS011;5379;51.034;7.006;2023-11-21T12:48:52;13.67;;;12.27;;
10661;SDS011;5379;51.034;7.006;2023-11-21T12:51:19;12.67;;;11.30;;
10661;SDS011;5379;51.034;7.006;2023-11-21T12:53:47;12.20;;;11.00;;
10661;SDS011;5379;51.034;7.006;2023-11-21T12:56:15;14.53;;;12.97;;
10661;SDS011;5379;51.034;7.006;2023-11-21T12:58:43;14.00;;;11.17;;
10661;SDS011;5379;51.034;7.006;2023-11-21T13:01:12;25.37;;;11.23;;
10661;SDS011;5379;51.034;7.006;2023-11-21T13:03:44;12.37;;;10.47;;
10661;SDS011;5379;51.034;7.006;2023-11-21T13:06:15;14.53;;;11.20;;
10661;SDS011;5379;51.034;7.006;2023-11-21T13:08:43;17.90;;;11.57;;
10661;SDS011;5379;51.034;7.006;2023-11-21T13:11:10;15.20;;;11.00;;
10661;SDS011;5379;51.034;7.006;2023-11-21T13:13:40;11.90;;;10.13;;
10661;SDS011;5379;51.034;7.006;2023-11-21T13:16:08;12.37;;;10.73;;
10661;SDS011;5379;51.034;7.006;2023-11-21T13:18:35;20.03;;;11.87;;
10661;SDS011;5379;51.034;7.006;2023-11-21T13:21:03;17.57;;;11.03;;
10661;SDS011;5379;51.034;7.006;2023-11-21T13:23:36;16.27;;;11.40;;
10661;SDS011;5379;51.034;7.006;2023-11-21T13:26:04;14.63;;;12.10;;
10661;SDS011;5379;51.034;7.006;2023-11-21T13:28:31;13.40;;;10.60;;
10661;SDS011;5379;51.034;7.006;2023-11-21T13:30:59;13.73;;;12.20;;
10661;SDS011;5379;51.034;7.006;2023-11-21T13:33:29;13.37;;;11.23;;
10661;SDS011;5379;51.034;7.006;2023-11-21T13:35:58;14.53;;;11.20;;
10661;SDS011;5379;51.034;7.006;2023-11-21T13:38:26;10.23;;;8.67;;
10661;SDS011;5379;51.034;7.006;2023-11-21T13:40:59;19.00;;;10.70;;
10661;SDS011;5379;51.034;7.006;2023-11-21T13:43:26;14.00;;;10.80;;
10661;SDS011;5379;51.034;7.006;2023-11-21T13:45:54;10.43;;;9.33;;
10661;SDS011;5379;51.034;7.006;2023-11-21T13:48:25;13.50;;;9.17;;
10661;SDS011;5379;51.034;7.006;2023-11-21T13:50:59;12.83;;;9.80;;
10661;SDS011;5379;51.034;7.006;2023-11-21T13:53:35;16.10;;;10.47;;
10661;SDS011;5379;51.034;7.006;2023-11-21T13:56:05;11.50;;;9.73;;
10661;SDS011;5379;51.034;7.006;2023-11-21T13:58:33;14.90;;;10.87;;
10661;SDS011;5379;51.034;7.006;2023-11-21T14:01:09;12.23;;;9.37;;
10661;SDS011;5379;51.034;7.006;2023-11-21T14:03:49;15.23;;;12.37;;
10661;SDS011;5379;51.034;7.006;2023-11-21T14:06:21;11.20;;;10.10;;
10661;SDS011;5379;51.034;7.006;2023-11-21T14:08:53;19.73;;;11.50;;
10661;SDS011;5379;51.034;7.006;2023-11-21T14:11:23;14.37;;;11.20;;
10661;SDS011;5379;51.034;7.006;2023-11-21T14:13:49;13.53;;;11.27;;
10661;SDS011;5379;51.034;7.006;2023-11-21T14:16:16;18.30;;;11.17;;
10661;SDS011;5379;51.034;7.006;2023-11-21T14:18:43;10.93;;;9.83;;
10661;SDS011;5379;51.034;7.006;2023-11-21T14:21:20;18.53;;;11.57;;
10661;SDS011;5379;51.034;7.006;2023-11-21T14:23:47;11.70;;;10.30;;
10661;SDS011;5379;51.034;7.006;2023-11-21T14:26:14;18.77;;;13.13;;
10661;SDS011;5379;51.034;7.006;2023-11-21T14:28:43;14.60;;;11.60;;
10661;SDS011;5379;51.034;7.006;2023-11-21T14:31:10;14.10;;;11.70;;
10661;SDS011;5379;51.034;7.006;2023-11-21T14:33:39;23.90;;;11.77;;
10661;SDS011;5379;51.034;7.006;2023-11-21T14:36:06;17.30;;;11.30;;
10661;SDS011;5379;51.034;7.006;2023-11-21T14:38:35;14.97;;;11.80;;
10661;SDS011;5379;51.034;7.006;2023-11-21T14:41:02;12.47;;;11.07;;
10661;SDS011;5379;51.034;7.006;2023-11-21T14:43:32;11.83;;;10.73;;
10661;SDS011;5379;51.034;7.006;2023-11-21T14:46:01;13.63;;;10.97;;
10661;SDS011;5379;51.034;7.006;2023-11-21T14:48:31;11.30;;;10.20;;
10661;SDS011;5379;51.034;7.006;2023-11-21T14:51:07;12.10;;;10.93;;
10661;SDS011;5379;51.034;7.006;2023-11-21T14:53:57;17.50;;;12.57;;
10661;SDS011;5379;51.034;7.006;2023-11-21T14:56:31;12.87;;;11.17;;
10661;SDS011;5379;51.034;7.006;2023-11-21T14:58:59;14.73;;;12.07;;
10661;SDS011;5379;51.034;7.006;2023-11-21T15:01:35;19.90;;;13.40;;
10661;SDS011;5379;51.034;7.006;2023-11-21T15:04:11;14.53;;;12.13;;
10661;SDS011;5379;51.034;7.006;2023-11-21T15:06:47;14.40;;;12.47;;
10661;SDS011;5379;51.034;7.006;2023-11-21T15:09:13;21.50;;;14.03;;
10661;SDS011;5379;51.034;7.006;2023-11-21T15:12:04;14.23;;;12.73;;
10661;SDS011;5379;51.034;7.006;2023-11-21T15:14:39;17.87;;;12.80;;
10661;SDS011;5379;51.034;7.006;2023-11-21T15:17:12;15.87;;;13.63;;
10661;SDS011;5379;51.034;7.006;2023-11-21T15:19:44;18.93;;;14.53;;
10661;SDS011;5379;51.034;7.006;2023-11-21T15:22:11;18.97;;;14.00;;
10661;SDS011;5379;51.034;7.006;2023-11-21T15:24:40;31.73;;;15.40;;
10661;SDS011;5379;51.034;7.006;2023-11-21T15:27:09;19.87;;;12.37;;
10661;SDS011;5379;51.034;7.006;2023-11-21T15:29:36;23.00;;;14.60;;
10661;SDS011;5379;51.034;7.006;2023-11-21T15:32:04;15.73;;;12.77;;
10661;SDS011;5379;51.034;7.006;2023-11-21T15:34:33;13.13;;;11.23;;
10661;SDS011;5379;51.034;7.006;2023-11-21T15:37:00;13.93;;;10.33;;
10661;SDS011;5379;51.034;7.006;2023-11-21T15:39:27;10.80;;;9.70;;
10661;SDS011;5379;51.034;7.006;2023-11-21T15:41:55;13.03;;;9.07;;
10661;SDS011;5379;51.034;7.006;2023-11-21T15:44:22;11.97;;;8.17;;
10661;SDS011;5379;51.034;7.006;2023-11-21T15:46:50;12.53;;;7.07;;
10661;SDS011;5379;51.034;7.006;2023-11-21T15:49:17;8.47;;;6.73;;
10661;SDS011;5379;51.034;7.006;2023-11-21T15:51:48;8.27;;;7.47;;
10661;SDS011;5379;51.034;7.006;2023-11-21T15:54:19;6.67;;;6.07;;
10661;SDS011;5379;51.034;7.006;2023-11-21T15:56:46;8.03;;;6.80;;
10661;SDS011;5379;51.034;7.006;2023-11-21T15:59:13;6.57;;;5.97;;
10661;SDS011;5379;51.034;7.006;2023-11-21T16:01:41;9.00;;;6.97;;
10661;SDS011;5379;51.034;7.006;2023-11-21T16:04:11;7.83;;;6.27;;
10661;SDS011;5379;51.034;7.006;2023-11-21T16:06:40;7.73;;;6.13;;
10661;SDS011;5379;51.034;7.006;2023-11-21T16:09:09;9.40;;;6.43;;
10661;SDS011;5379;51.034;7.006;2023-11-21T16:11:46;10.17;;;6.00;;
10661;SDS011;5379;51.034;7.006;2023-11-21T16:14:13;5.00;;;4.70;;
10661;SDS011;5379;51.034;7.006;2023-11-21T16:16:42;5.83;;;5.23;;
10661;SDS011;5379;51.034;7.006;2023-11-21T16:19:09;11.33;;;7.03;;
10661;SDS011;5379;51.034;7.006;2023-11-21T16:21:36;5.60;;;5.20;;
10661;SDS011;5379;51.034;7.006;2023-11-21T16:24:03;5.07;;;4.77;;
10661;SDS011;5379;51.034;7.006;2023-11-21T16:26:31;6.97;;;6.13;;
10661;SDS011;5379;51.034;7.006;2023-11-21T16:29:00;5.37;;;4.97;;
10661;SDS011;5379;51.034;7.006;2023-11-21T16:31:28;6.50;;;5.87;;
10661;SDS011;5379;51.034;7.006;2023-11-21T16:33:55;5.80;;;5.40;;
10661;SDS011;5379;51.034;7.006;2023-11-21T16:36:21;6.40;;;5.80;;
10661;SDS011;5379;51.034;7.006;2023-11-21T16:38:48;5.53;;;4.97;;
10661;SDS011;5379;51.034;7.006;2023-11-21T16:41:15;6.23;;;5.63;;
10661;SDS011;5379;51.034;7.006;2023-11-21T16:43:44;5.90;;;5.40;;
10661;SDS011;5379;51.034;7.006;2023-11-21T16:46:11;9.83;;;5.80;;
10661;SDS011;5379;51.034;7.006;2023-11-21T16:48:39;14.77;;;8.37;;
10661;SDS011;5379;51.034;7.006;2023-11-21T16:51:05;5.83;;;5.33;;
10661;SDS011;5379;51.034;7.006;2023-11-21T16:53:33;6.07;;;5.57;;
10661;SDS011;5379;51.034;7.006;2023-11-21T16:56:00;6.40;;;5.90;;
10661;SDS011;5379;51.034;7.006;2023-11-21T16:58:27;6.17;;;5.57;;
10661;SDS011;5379;51.034;7.006;2023-11-21T17:00:55;5.20;;;4.80;;
10661;SDS011;5379;51.034;7.006;2023-11-21T17:03:22;4.63;;;4.33;;
10661;SDS011;5379;51.034;7.006;2023-11-21T17:05:51;5.90;;;5.20;;
10661;SDS011;5379;51.034;7.006;2023-11-21T17:08:18;4.70;;;4.40;;
10661;SDS011;5379;51.034;7.006;2023-11-21T17:10:45;8.63;;;5.87;;
10661;SDS011;5379;51.034;7.006;2023-11-21T17:13:14;6.10;;;5.13;;
10661;SDS011;5379;51.034;7.006;2023-11-21T17:15:42;6.80;;;6.27;;
10661;SDS011;5379;51.034;7.006;2023-11-21T17:18:11;6.93;;;6.23;;
10661;SDS011;5379;51.034;7.006;2023-11-21T17:20:38;6.43;;;5.80;;
10661;SDS011;5379;51.034;7.006;2023-11-21T17:23:05;5.17;;;4.67;;
10661;SDS011;5379;51.034;7.006;2023-11-21T17:25:33;6.20;;;5.70;;
10661;SDS011;5379;51.034;7.006;2023-11-21T17:28:01;10.23;;;6.33;;
10661;SDS011;5379;51.034;7.006;2023-11-21T17:30:28;4.80;;;4.50;;
10661;SDS011;5379;51.034;7.006;2023-11-21T17:32:55;6.40;;;5.90;;
10661;SDS011;5379;51.034;7.006;2023-11-21T17:35:23;8.47;;;6.60;;
10661;SDS011;5379;51.034;7.006;2023-11-21T17:37:50;7.27;;;6.67;;
10661;SDS011;5379;51.034;7.006;2023-11-21T17:40:17;4.97;;;4.57;;
10661;SDS011;5379;51.034;7.006;2023-11-21T17:42:45;8.00;;;5.53;;
10661;SDS011;5379;51.034;7.006;2023-11-21T17:45:11;6.30;;;5.67;;
10661;SDS011;5379;51.034;7.006;2023-11-21T17:47:40;6.40;;;5.80;;
10661;SDS011;5379;51.034;7.006;2023-11-21T17:50:07;5.20;;;4.80;;
10661;SDS011;5379;51.034;7.006;2023-11-21T17:52:36;5.90;;;5.37;;
10661;SDS011;5379;51.034;7.006;2023-11-21T17:55:03;5.03;;;4.63;;
10661;SDS011;5379;51.034;7.006;2023-11-21T17:57:31;5.67;;;5.13;;
10661;SDS011;5379;51.034;7.006;2023-11-21T17:59:59;4.87;;;4.43;;
10661;SDS011;5379;51.034;7.006;2023-11-21T18:02:26;4.63;;;4.33;;
10661;SDS011;5379;51.034;7.006;2023-11-21T18:04:57;3.70;;;3.50;;
10661;SDS011;5379;51.034;7.006;2023-11-21T18:07:24;3.77;;;3.47;;
10661;SDS011;5379;51.034;7.006;2023-11-21T18:09:53;4.80;;;3.83;;
10661;SDS011;5379;51.034;7.006;2023-11-21T18:12:19;3.23;;;3.03;;
10661;SDS011;5379;51.034;7.006;2023-11-21T18:14:46;3.37;;;3.10;;
10661;SDS011;5379;51.034;7.006;2023-11-21T18:17:13;3.17;;;2.97;;
10661;SDS011;5379;51.034;7.006;2023-11-21T18:19:41;3.83;;;3.20;;
10661;SDS011;5379;51.034;7.006;2023-11-21T18:22:09;2.77;;;2.53;;
10661;SDS011;5379;51.034;7.006;2023-11-21T18:24:36;1.60;;;1.57;;
10661;SDS011;5379;51.034;7.006;2023-11-21T18:27:05;2.80;;;2.60;;
10661;SDS011;5379;51.034;7.006;2023-11-21T18:29:32;2.60;;;2.40;;
10661;SDS011;5379;51.034;7.006;2023-11-21T18:31:59;3.13;;;2.90;;
10661;SDS011;5379;51.034;7.006;2023-11-21T18:34:26;2.67;;;2.57;;
10661;SDS011;5379;51.034;7.006;2023-11-21T18:36:53;2.37;;;2.27;;
10661;SDS011;5379;51.034;7.006;2023-11-21T18:39:20;2.03;;;1.83;;
10661;SDS011;5379;51.034;7.006;2023-11-21T18:41:46;3.20;;;2.90;;
10661;SDS011;5379;51.034;7.006;2023-11-21T18:44:15;1.60;;;1.60;;
10661;SDS011;5379;51.034;7.006;2023-11-21T18:46:41;2.60;;;2.50;;
10661;SDS011;5379;51.034;7.006;2023-11-21T18:49:08;3.60;;;3.33;;
10661;SDS011;5379;51.034;7.006;2023-11-21T18:51:35;3.40;;;3.20;;
10661;SDS011;5379;51.034;7.006;2023-11-21T18:54:02;1.80;;;1.80;;
10661;SDS011;5379;51.034;7.006;2023-11-21T18:56:30;2.33;;;2.10;;
10661;SDS011;5379;51.034;7.006;2023-11-21T18:58:57;2.37;;;2.27;;
10661;SDS011;5379;51.034;7.006;2023-11-21T19:01:26;2.80;;;2.53;;
10661;SDS011;5379;51.034;7.006;2023-11-21T19:03:53;2.97;;;2.40;;
10661;SDS011;5379;51.034;7.006;2023-11-21T19:06:21;2.33;;;2.13;;
10661;SDS011;5379;51.034;7.006;2023-11-21T19:08:48;3.13;;;2.50;;
10661;SDS011;5379;51.034;7.006;2023-11-21T19:11:15;2.50;;;2.30;;
10661;SDS011;5379;51.034;7.006;2023-11-21T19:13:42;2.63;;;2.43;;
10661;SDS011;5379;51.034;7.006;2023-11-21T19:16:09;2.40;;;2.20;;
10661;SDS011;5379;51.034;7.006;2023-11-21T19:18:40;2.17;;;2.07;;
10661;SDS011;5379;51.034;7.006;2023-11-21T19:21:11;2.80;;;2.70;;
10661;SDS011;5379;51.034;7.006;2023-11-21T19:23:39;3.50;;;2.40;;
10661;SDS011;5379;51.034;7.006;2023-11-21T19:26:06;2.53;;;2.40;;
10661;SDS011;5379;51.034;7.006;2023-11-21T19:28:33;2.53;;;2.33;;
10661;SDS011;5379;51.034;7.006;2023-11-21T19:31:00;3.03;;;2.83;;